KTBN/TBN METAR and TAF weather

Enter ICAO airport designator
Station Type Date Time Source
KTBN METAR 2020/07/06 01:56 UTC NOAA

KTBN 060156Z AUTO 03003KT 10SM CLR 27/21 A2995 RMK AO2 SLP132 T02660211


Station Type Date Time Source
KTBN Decoded METAR 2020/07/06 01:56 UTC NOAA

Fort Leonard Wood, MO, United States (KTBN) 37-44N 092-08W
Jul 05, 2020 - 09:56 PM EDT / 2020.07.06 0156 UTC
Wind: from the NNE (030 degrees) at 3 MPH (3 KT):0
Visibility: 10 mile(s):0
Sky conditions: clear
Temperature: 79.9 F (26.6 C)
Dew Point: 70.0 F (21.1 C)
Relative Humidity: 71%
Pressure (altimeter): 29.95 in. Hg (1014 hPa)
ob: KTBN 060156Z AUTO 03003KT 10SM CLR 27/21 A2995 RMK AO2 SLP132 T02660211
cycle: 2

Station Type Date Time Source
KTBN TAF UTC NOAA

Error!

Example: see airport list